createdAt,value
2018-01-04T00:00:33.360Z,98540
2018-01-04T00:01:33.294Z,98550
2018-01-04T00:02:32.348Z,98539
2018-01-04T00:03:32.464Z,98541
2018-01-04T00:04:32.566Z,98556
2018-01-04T00:05:32.653Z,98550
2018-01-04T00:06:32.566Z,98552
2018-01-04T00:07:33.603Z,98550
2018-01-04T00:08:32.694Z,98551
2018-01-04T00:09:32.890Z,98548
2018-01-04T00:10:33.882Z,98539
2018-01-04T00:11:32.827Z,98534
2018-01-04T00:12:32.831Z,98534
2018-01-04T00:13:32.991Z,98546
2018-01-04T00:14:32.947Z,98534
2018-01-04T00:15:34.072Z,98541
2018-01-04T00:16:34.067Z,98536
2018-01-04T00:17:34.171Z,98531
2018-01-04T00:18:33.201Z,98536
2018-01-04T00:19:33.270Z,98544
2018-01-04T00:20:34.361Z,98533
2018-01-04T00:21:33.445Z,98532
2018-01-04T00:22:34.490Z,98543
2018-01-04T00:23:33.462Z,98546
2018-01-04T00:24:33.540Z,98539
2018-01-04T00:25:34.540Z,98542
2018-01-04T00:26:34.695Z,98549
2018-01-04T00:27:34.694Z,98540
2018-01-04T00:28:33.840Z,98544
2018-01-04T00:29:34.889Z,98542
2018-01-04T00:30:33.822Z,98540
2018-01-04T00:31:33.964Z,98546
2018-01-04T00:32:33.990Z,98542
2018-01-04T00:33:35.021Z,98535
2018-01-04T00:34:34.021Z,98546
2018-01-04T00:35:35.193Z,98542
2018-01-04T00:36:34.259Z,98539
2018-01-04T00:37:35.228Z,98540
2018-01-04T00:38:35.285Z,98544
2018-01-04T00:39:35.363Z,98546
2018-01-04T00:40:34.325Z,98547
2018-01-04T00:41:34.415Z,98543
2018-01-04T00:42:35.578Z,98540
2018-01-04T00:43:35.630Z,98542
2018-01-04T00:44:34.633Z,98538
2018-01-04T00:45:34.684Z,98536
2018-01-04T00:46:35.850Z,98539
2018-01-04T00:47:34.897Z,98543
2018-01-04T00:48:35.880Z,98542
2018-01-04T00:49:34.909Z,98537
2018-01-04T00:50:36.068Z,98535
2018-01-04T00:51:36.093Z,98550
2018-01-04T00:52:35.078Z,98528
2018-01-04T00:53:36.131Z,98536
2018-01-04T00:54:35.206Z,98535
2018-01-04T00:55:35.253Z,98532
2018-01-04T00:56:35.262Z,98534
2018-01-04T00:57:35.433Z,98535
2018-01-04T00:58:35.372Z,98528
2018-01-04T00:59:35.470Z,98535
2018-01-04T01:00:35.554Z,98532
2018-01-04T01:01:36.704Z,98541
2018-01-04T01:02:35.732Z,98538
2018-01-04T01:03:35.623Z,98534
2018-01-04T01:04:35.687Z,98536
2018-01-04T01:05:35.802Z,98542
2018-01-04T01:06:35.835Z,98531
2018-01-04T01:07:35.917Z,98537
2018-01-04T01:08:36.898Z,98544
2018-01-04T01:09:35.948Z,98533
2018-01-04T01:10:37.112Z,98550
2018-01-04T01:11:36.100Z,98541
2018-01-04T01:12:36.133Z,98550
2018-01-04T01:13:36.205Z,98533
2018-01-04T01:14:37.351Z,98548
2018-01-04T01:15:36.323Z,98537
2018-01-04T01:16:37.362Z,98555
2018-01-04T01:17:36.493Z,98550
2018-01-04T01:18:37.436Z,98553
2018-01-04T01:19:37.463Z,98553
2018-01-04T01:20:37.240Z,98557
2018-01-04T01:21:37.606Z,98556
2018-01-04T01:22:36.631Z,98553
2018-01-04T01:23:37.726Z,98549
2018-01-04T01:24:36.689Z,98556
2018-01-04T01:25:36.755Z,98549
2018-01-04T01:26:36.894Z,98547
2018-01-04T01:27:36.961Z,98546
2018-01-04T01:28:37.973Z,98551
2018-01-04T01:29:36.958Z,98552
2018-01-04T01:30:38.148Z,98541
2018-01-04T01:31:37.158Z,98549
2018-01-04T01:32:38.239Z,98558
2018-01-04T01:33:38.249Z,98557
2018-01-04T01:34:37.237Z,98550
2018-01-04T01:35:37.335Z,98557
2018-01-04T01:36:37.400Z,98548
2018-01-04T01:37:37.486Z,98549
2018-01-04T01:38:38.678Z,98546
2018-01-04T01:39:37.722Z,98545
2018-01-04T01:40:37.795Z,98549
2018-01-04T01:41:37.842Z,98552
2018-01-04T01:42:37.952Z,98553
2018-01-04T01:43:37.970Z,98552
2018-01-04T01:44:38.033Z,98551
2018-01-04T01:45:38.041Z,98552
2018-01-04T01:46:37.956Z,98555
2018-01-04T01:47:38.100Z,98548
2018-01-04T01:48:38.003Z,98557
2018-01-04T01:49:38.002Z,98560
2018-01-04T01:50:38.189Z,98561
2018-01-04T01:51:39.292Z,98559
2018-01-04T01:52:39.316Z,98564
2018-01-04T01:53:38.332Z,98556
2018-01-04T01:54:39.371Z,98566
2018-01-04T01:55:39.291Z,98560
2018-01-04T01:56:39.446Z,98560
2018-01-04T01:57:39.398Z,98542
2018-01-04T01:58:38.474Z,98553
2018-01-04T01:59:39.607Z,98563
2018-01-04T02:00:38.557Z,98559
2018-01-04T02:01:38.682Z,98568
2018-01-04T02:02:39.649Z,98560
2018-01-04T02:03:38.776Z,98560
2018-01-04T02:04:39.730Z,98565
2018-01-04T02:05:38.897Z,98567
2018-01-04T02:06:38.878Z,98567
2018-01-04T02:07:39.031Z,98574
2018-01-04T02:08:39.976Z,98573
2018-01-04T02:09:40.139Z,98569
2018-01-04T02:10:40.200Z,98574
2018-01-04T02:11:40.203Z,98578
2018-01-04T02:12:39.193Z,98586
2018-01-04T02:13:40.283Z,98582
2018-01-04T02:14:40.370Z,98583
2018-01-04T02:15:39.465Z,98586
2018-01-04T02:16:39.392Z,98586
2018-01-04T02:17:39.567Z,98586
2018-01-04T02:18:39.497Z,98582
2018-01-04T02:19:40.453Z,98578
2018-01-04T02:20:39.515Z,98572
2018-01-04T02:21:40.535Z,98574
2018-01-04T02:22:39.614Z,98576
2018-01-04T02:23:39.631Z,98578
2018-01-04T02:24:39.818Z,98582
2018-01-04T02:25:40.774Z,98578
2018-01-04T02:26:39.688Z,98575
2018-01-04T02:27:40.797Z,98583
2018-01-04T02:28:40.819Z,98585
2018-01-04T02:29:39.783Z,98596
2018-01-04T02:30:40.844Z,98593
2018-01-04T02:31:39.923Z,98594
2018-01-04T02:32:39.964Z,98593
2018-01-04T02:33:40.062Z,98591
2018-01-04T02:34:41.120Z,98589
2018-01-04T02:35:40.159Z,98585
2018-01-04T02:36:40.055Z,98583
2018-01-04T02:37:41.116Z,98568
2018-01-04T02:38:40.242Z,98572
2018-01-04T02:39:41.386Z,98568
2018-01-04T02:40:41.408Z,98582
2018-01-04T02:41:41.348Z,98577
2018-01-04T02:42:41.527Z,98574
2018-01-04T02:43:41.620Z,98578
2018-01-04T02:44:40.575Z,98572
2018-01-04T02:45:41.717Z,98574
2018-01-04T02:46:40.751Z,98575
2018-01-04T02:47:40.697Z,98575
2018-01-04T02:48:40.873Z,98580
2018-01-04T02:49:40.873Z,98582
2018-01-04T02:50:40.802Z,98583
2018-01-04T02:51:40.828Z,98578
2018-01-04T02:52:41.856Z,98582
2018-01-04T02:53:42.067Z,98575
2018-01-04T02:54:41.118Z,98585
2018-01-04T02:55:41.083Z,98567
2018-01-04T02:56:42.281Z,98580
2018-01-04T02:57:42.313Z,98573
2018-01-04T02:58:41.433Z,98582
2018-01-04T02:59:42.302Z,98572
2018-01-04T03:00:41.361Z,98579
2018-01-04T03:01:42.351Z,98567
2018-01-04T03:02:41.372Z,98566
2018-01-04T03:03:42.475Z,98581
2018-01-04T03:04:41.502Z,98568
2018-01-04T03:05:42.364Z,98572
2018-01-04T03:06:42.458Z,98576
2018-01-04T03:07:42.408Z,98574
2018-01-04T03:08:41.503Z,98577
2018-01-04T03:09:42.568Z,98570
2018-01-04T03:10:42.626Z,98578
2018-01-04T03:11:41.628Z,98577
2018-01-04T03:12:41.724Z,98580
2018-01-04T03:13:41.639Z,98576
2018-01-04T03:14:41.800Z,98578
2018-01-04T03:15:41.856Z,98582
2018-01-04T03:16:42.869Z,98576
2018-01-04T03:17:41.955Z,98577
2018-01-04T03:18:41.887Z,98578
2018-01-04T03:19:42.982Z,98577
2018-01-04T03:20:42.068Z,98569
2018-01-04T03:21:42.116Z,98577
2018-01-04T03:22:42.213Z,98577
2018-01-04T03:23:43.133Z,98574
2018-01-04T03:24:42.191Z,98570
2018-01-04T03:25:43.354Z,98572
2018-01-04T03:26:42.371Z,98577
2018-01-04T03:27:43.339Z,98579
2018-01-04T03:28:42.414Z,98583
2018-01-04T03:29:42.600Z,98586
2018-01-04T03:30:43.574Z,98576
2018-01-04T03:31:42.602Z,98578
2018-01-04T03:32:42.665Z,98579
2018-01-04T03:33:42.791Z,98578
2018-01-04T03:34:43.664Z,98579
2018-01-04T03:35:43.834Z,98584
2018-01-04T03:36:42.869Z,98580
2018-01-04T03:37:42.789Z,98589
2018-01-04T03:38:42.979Z,98589
2018-01-04T03:39:42.942Z,98589
2018-01-04T03:40:42.980Z,98592
2018-01-04T03:41:44.064Z,98588
2018-01-04T03:42:44.158Z,98589
2018-01-04T03:43:43.208Z,98594
2018-01-04T03:44:44.249Z,98590
2018-01-04T03:45:43.278Z,98587
2018-01-04T03:46:44.339Z,98584
2018-01-04T03:47:44.424Z,98585
2018-01-04T03:48:44.400Z,98591
2018-01-04T03:49:44.490Z,98571
2018-01-04T03:50:43.569Z,98567
2018-01-04T03:51:43.681Z,98576
2018-01-04T03:52:43.755Z,98581
2018-01-04T03:53:44.822Z,98586
2018-01-04T03:54:44.760Z,98584
2018-01-04T03:55:44.000Z,98581
2018-01-04T03:56:45.034Z,98572
2018-01-04T03:57:45.035Z,98567
2018-01-04T03:58:44.260Z,98579
2018-01-04T03:59:44.172Z,98576
2018-01-04T04:00:45.212Z,98576
2018-01-04T04:01:45.375Z,98578
2018-01-04T04:02:44.350Z,98577
2018-01-04T04:03:44.464Z,98569
2018-01-04T04:04:44.459Z,98565
2018-01-04T04:05:44.538Z,98573
2018-01-04T04:06:45.679Z,98570
2018-01-04T04:07:44.640Z,98567
2018-01-04T04:08:45.751Z,98562
2018-01-04T04:09:44.760Z,98573
2018-01-04T04:10:44.893Z,98575
2018-01-04T04:11:44.793Z,98567
2018-01-04T04:12:44.941Z,98575
2018-01-04T04:13:44.818Z,98575
2018-01-04T04:14:45.028Z,98582
2018-01-04T04:15:44.953Z,98585
2018-01-04T04:16:45.067Z,98590
2018-01-04T04:17:46.114Z,98594
2018-01-04T04:18:45.235Z,98594
2018-01-04T04:19:45.278Z,98589
2018-01-04T04:20:46.276Z,98589
2018-01-04T04:21:45.266Z,98600
2018-01-04T04:22:45.274Z,98597
2018-01-04T04:23:45.438Z,98604
2018-01-04T04:24:45.370Z,98612
2018-01-04T04:25:45.418Z,98605
2018-01-04T04:26:45.651Z,98609
2018-01-04T04:27:46.647Z,98621
2018-01-04T04:28:45.589Z,98599
2018-01-04T04:29:46.642Z,98611
2018-01-04T04:30:45.791Z,98618
2018-01-04T04:31:45.836Z,98613
2018-01-04T04:32:47.019Z,98623
2018-01-04T04:33:47.061Z,98618
2018-01-04T04:34:46.163Z,98611
2018-01-04T04:35:46.057Z,98619
2018-01-04T04:36:47.237Z,98621
2018-01-04T04:37:46.189Z,98620
2018-01-04T04:38:46.244Z,98626
2018-01-04T04:39:47.286Z,98614
2018-01-04T04:40:47.470Z,98610
2018-01-04T04:41:46.498Z,98611
2018-01-04T04:42:46.567Z,98609
2018-01-04T04:43:47.771Z,98612
2018-01-04T04:44:47.818Z,98618
2018-01-04T04:45:47.874Z,98618
2018-01-04T04:46:47.816Z,98611
2018-01-04T04:47:47.955Z,98615
2018-01-04T04:48:47.967Z,98617
2018-01-04T04:49:48.045Z,98611
2018-01-04T04:50:47.029Z,98613
2018-01-04T04:51:47.109Z,98612
2018-01-04T04:52:48.109Z,98611
2018-01-04T04:53:47.211Z,98600
2018-01-04T04:54:48.398Z,98598
2018-01-04T04:55:47.414Z,98606
2018-01-04T04:56:48.527Z,98607
2018-01-04T04:57:47.496Z,98607
2018-01-04T04:58:48.525Z,98602
2018-01-04T04:59:47.561Z,98594
2018-01-04T05:00:48.729Z,98601
2018-01-04T05:01:47.812Z,98590
2018-01-04T05:02:48.846Z,98583
2018-01-04T05:03:48.884Z,98566
2018-01-04T05:04:48.009Z,98580
2018-01-04T05:05:48.094Z,98581
2018-01-04T05:06:48.030Z,98580
2018-01-04T05:07:49.111Z,98583
2018-01-04T05:08:49.277Z,98579
2018-01-04T05:09:49.193Z,98586
2018-01-04T05:10:49.346Z,98588
2018-01-04T05:11:48.432Z,98585
2018-01-04T05:12:48.443Z,98586
2018-01-04T05:13:49.484Z,98579
2018-01-04T05:14:48.566Z,98580
2018-01-04T05:15:48.579Z,98576
2018-01-04T05:16:48.654Z,98575
2018-01-04T05:17:49.707Z,98568
2018-01-04T05:18:49.725Z,98579
2018-01-04T05:19:49.670Z,98580
2018-01-04T05:20:49.788Z,98589
2018-01-04T05:21:49.873Z,98584
2018-01-04T05:22:48.838Z,98575
2018-01-04T05:23:49.920Z,98582
2018-01-04T05:24:50.012Z,98562
2018-01-04T05:25:48.948Z,98560
2018-01-04T05:26:50.115Z,98562
2018-01-04T05:27:49.068Z,98555
2018-01-04T05:28:49.215Z,98571
2018-01-04T05:29:49.223Z,98570
2018-01-04T05:30:49.250Z,98572
2018-01-04T05:31:49.203Z,98566
2018-01-04T05:32:49.220Z,98566
2018-01-04T05:33:49.381Z,98567
2018-01-04T05:34:50.416Z,98571
2018-01-04T05:35:50.443Z,98562
2018-01-04T05:36:49.539Z,98553
2018-01-04T05:37:50.704Z,98563
2018-01-04T05:38:49.716Z,98565
2018-01-04T05:39:50.831Z,98559
2018-01-04T05:40:49.920Z,98561
2018-01-04T05:41:49.870Z,98559
2018-01-04T05:42:50.049Z,98565
2018-01-04T05:43:51.066Z,98567
2018-01-04T05:44:51.094Z,98550
2018-01-04T05:45:50.101Z,98554
2018-01-04T05:46:50.160Z,98562
2018-01-04T05:47:50.172Z,98558
2018-01-04T05:48:51.254Z,98567
2018-01-04T05:49:51.372Z,98551
2018-01-04T05:50:50.370Z,98545
2018-01-04T05:51:50.477Z,98558
2018-01-04T05:52:51.522Z,98549
2018-01-04T05:53:50.528Z,98557
2018-01-04T05:54:51.623Z,98555
2018-01-04T05:55:50.688Z,98562
2018-01-04T05:56:50.719Z,98557
2018-01-04T05:57:50.794Z,98555
2018-01-04T05:58:51.827Z,98555
2018-01-04T05:59:51.859Z,98560
2018-01-04T06:00:50.857Z,98561
2018-01-04T06:01:50.918Z,98557
2018-01-04T06:02:50.893Z,98557
2018-01-04T06:03:52.033Z,98554
2018-01-04T06:04:51.953Z,98566
2018-01-04T06:05:51.020Z,98567
2018-01-04T06:06:52.075Z,98554
2018-01-04T06:07:51.183Z,98559
2018-01-04T06:08:52.290Z,98546
2018-01-04T06:09:51.358Z,98556
2018-01-04T06:10:51.356Z,98562
2018-01-04T06:11:51.572Z,98555
2018-01-04T06:12:51.551Z,98552
2018-01-04T06:13:51.495Z,98557
2018-01-04T06:14:52.543Z,98556
2018-01-04T06:15:52.693Z,98554
2018-01-04T06:16:52.678Z,98551
2018-01-04T06:17:52.846Z,98553
2018-01-04T06:18:51.930Z,98563
2018-01-04T06:19:51.986Z,98563
2018-01-04T06:20:52.020Z,98562
2018-01-04T06:21:51.923Z,98559
2018-01-04T06:22:52.003Z,98555
2018-01-04T06:23:52.002Z,98552
2018-01-04T06:24:52.148Z,98558
2018-01-04T06:25:52.260Z,98545
2018-01-04T06:26:52.203Z,98555
2018-01-04T06:27:52.340Z,98552
2018-01-04T06:28:52.294Z,98551
2018-01-04T06:29:52.319Z,98536
2018-01-04T06:30:53.465Z,98547
2018-01-04T06:31:52.446Z,98546
2018-01-04T06:32:52.493Z,98549
2018-01-04T06:33:53.638Z,98549
2018-01-04T06:34:52.608Z,98552
2018-01-04T06:35:52.711Z,98555
2018-01-04T06:36:52.737Z,98556
2018-01-04T06:37:52.788Z,98558
2018-01-04T06:38:53.917Z,98560
2018-01-04T06:39:52.854Z,98558
2018-01-04T06:40:53.023Z,98559
2018-01-04T06:41:53.966Z,98554
2018-01-04T06:42:53.010Z,98557
2018-01-04T06:43:53.008Z,98559
2018-01-04T06:44:54.011Z,98553
2018-01-04T06:45:54.155Z,98547
2018-01-04T06:46:54.090Z,98559
2018-01-04T06:47:54.119Z,98561
2018-01-04T06:48:54.143Z,98561
2018-01-04T06:49:54.288Z,98565
2018-01-04T06:50:54.322Z,98561
2018-01-04T06:51:53.465Z,98564
2018-01-04T06:52:54.471Z,98551
2018-01-04T06:53:53.543Z,98552
2018-01-04T06:54:53.509Z,98548
2018-01-04T06:55:53.762Z,98550
2018-01-04T06:56:53.740Z,98546
2018-01-04T06:57:54.575Z,98547
2018-01-04T06:58:53.631Z,98537
2018-01-04T06:59:54.797Z,98538
2018-01-04T07:00:53.752Z,98541
2018-01-04T07:01:54.829Z,98537
2018-01-04T07:02:54.839Z,98533
2018-01-04T07:03:53.786Z,98530
2018-01-04T07:04:54.842Z,98525
2018-01-04T07:05:55.081Z,98532
2018-01-04T07:06:54.937Z,98529
2018-01-04T07:07:54.898Z,98528
2018-01-04T07:08:55.063Z,98529
2018-01-04T07:09:55.073Z,98523
2018-01-04T07:10:55.162Z,98520
2018-01-04T07:11:55.161Z,98524
2018-01-04T07:12:54.358Z,98526
2018-01-04T07:13:54.353Z,98530
2018-01-04T07:14:55.401Z,98522
2018-01-04T07:15:54.351Z,98530
2018-01-04T07:16:55.460Z,98522
2018-01-04T07:17:55.419Z,98525
2018-01-04T07:18:54.646Z,98522
2018-01-04T07:19:55.601Z,98515
2018-01-04T07:20:54.613Z,98518
2018-01-04T07:21:55.702Z,98524
2018-01-04T07:22:55.686Z,98523
2018-01-04T07:23:54.899Z,98537
2018-01-04T07:24:54.803Z,98541
2018-01-04T07:25:55.877Z,98537
2018-01-04T07:26:54.921Z,98543
2018-01-04T07:27:55.780Z,98533
2018-01-04T07:28:54.979Z,98542
2018-01-04T07:29:55.084Z,98546
2018-01-04T07:30:55.012Z,98543
2018-01-04T07:31:55.204Z,98540
2018-01-04T07:32:55.160Z,98545
2018-01-04T07:33:55.349Z,98550
2018-01-04T07:34:56.396Z,98555
2018-01-04T07:35:55.373Z,98550
2018-01-04T07:36:56.337Z,98550
2018-01-04T07:37:55.374Z,98552
2018-01-04T07:38:56.468Z,98554
2018-01-04T07:39:56.541Z,98557
2018-01-04T07:40:55.565Z,98568
2018-01-04T07:41:56.139Z,98565
2018-01-04T07:42:55.839Z,98560
2018-01-04T07:43:56.824Z,98558
2018-01-04T07:44:55.755Z,98573
2018-01-04T07:45:56.833Z,98566
2018-01-04T07:46:55.833Z,98568
2018-01-04T07:47:56.847Z,98564
2018-01-04T07:48:56.121Z,98579
2018-01-04T07:49:57.499Z,98564
2018-01-04T07:50:57.072Z,98576
2018-01-04T07:51:57.033Z,98571
2018-01-04T07:52:56.113Z,98568
2018-01-04T07:53:57.254Z,98577
2018-01-04T07:54:56.264Z,98577
2018-01-04T07:55:56.287Z,98581
2018-01-04T07:56:57.445Z,98565
2018-01-04T07:57:56.455Z,98577
2018-01-04T07:58:57.512Z,98581
2018-01-04T07:59:56.675Z,98571
2018-01-04T08:00:57.574Z,98563
2018-01-04T08:01:56.804Z,98562
2018-01-04T08:02:57.827Z,98559
2018-01-04T08:03:56.776Z,98562
2018-01-04T08:04:56.821Z,98565
2018-01-04T08:05:56.856Z,98569
2018-01-04T08:06:58.021Z,98566
2018-01-04T08:07:57.090Z,98561
2018-01-04T08:08:56.971Z,98563
2018-01-04T08:09:57.238Z,98558
2018-01-04T08:10:58.136Z,98570
2018-01-04T08:11:57.258Z,98569
2018-01-04T08:12:57.336Z,98561
2018-01-04T08:13:57.435Z,98563
2018-01-04T08:14:58.435Z,98559
2018-01-04T08:15:57.549Z,98558
2018-01-04T08:16:57.539Z,98565
2018-01-04T08:17:57.576Z,98552
2018-01-04T08:18:58.556Z,98549
2018-01-04T08:19:57.680Z,98556
2018-01-04T08:20:58.697Z,98557
2018-01-04T08:21:57.851Z,98557
2018-01-04T08:22:57.821Z,98559
2018-01-04T08:23:58.046Z,98550
2018-01-04T08:24:58.953Z,98551
2018-01-04T08:25:59.008Z,98550
2018-01-04T08:26:58.043Z,98546
2018-01-04T08:27:57.943Z,98547
2018-01-04T08:28:58.972Z,98536
2018-01-04T08:29:58.032Z,98546
2018-01-04T08:30:59.191Z,98543
2018-01-04T08:31:58.214Z,98538
2018-01-04T08:32:58.391Z,98523
2018-01-04T08:33:58.316Z,98508
2018-01-04T08:34:59.426Z,98516
2018-01-04T08:35:58.400Z,98515
2018-01-04T08:36:58.432Z,98515
2018-01-04T08:37:58.483Z,98512
2018-01-04T08:38:59.589Z,98524
2018-01-04T08:39:58.534Z,98521
2018-01-04T08:40:58.635Z,98519
2018-01-04T08:41:58.780Z,98517
2018-01-04T08:42:58.887Z,98518
2018-01-04T08:43:58.957Z,98511
2018-01-04T08:44:58.931Z,98520
2018-01-04T08:45:59.076Z,98517
2018-01-04T08:46:59.112Z,98518
2018-01-04T08:48:00.144Z,98530
2018-01-04T08:48:59.169Z,98525
2018-01-04T08:49:59.262Z,98517
2018-01-04T08:50:59.567Z,98510
2018-01-04T08:51:59.455Z,98511
2018-01-04T08:53:00.484Z,98508
2018-01-04T08:53:59.533Z,98511
2018-01-04T08:54:59.632Z,98503
2018-01-04T08:55:59.626Z,98509
2018-01-04T08:57:00.752Z,98515
2018-01-04T08:57:59.679Z,98506
2018-01-04T08:58:59.725Z,98504
2018-01-04T08:59:59.801Z,98508
2018-01-04T09:00:59.881Z,98504
2018-01-04T09:01:59.973Z,98498
2018-01-04T09:03:01.248Z,98502
2018-01-04T09:04:00.105Z,98504
2018-01-04T09:05:01.373Z,98503
2018-01-04T09:06:01.748Z,98500
2018-01-04T09:07:00.613Z,98496
2018-01-04T09:08:01.388Z,98505
2018-01-04T09:09:00.510Z,98497
2018-01-04T09:10:00.462Z,98497
2018-01-04T09:11:00.524Z,98500
2018-01-04T09:12:00.718Z,98504
2018-01-04T09:13:01.647Z,98505
2018-01-04T09:14:01.869Z,98508
2018-01-04T09:15:01.968Z,98502
2018-01-04T09:16:01.853Z,98506
2018-01-04T09:17:00.930Z,98500
2018-01-04T09:18:02.033Z,98497
2018-01-04T09:19:02.013Z,98494
2018-01-04T09:20:01.162Z,98490
2018-01-04T09:21:02.303Z,98493
2018-01-04T09:22:01.312Z,98490
2018-01-04T09:23:02.287Z,98496
2018-01-04T09:24:02.536Z,98491
2018-01-04T09:25:03.900Z,98503
2018-01-04T09:26:04.493Z,98497
2018-01-04T09:27:01.847Z,98497
2018-01-04T09:28:11.643Z,98501
2018-01-04T09:29:01.947Z,98496
2018-01-04T09:30:02.048Z,98500
2018-01-04T09:31:01.995Z,98498
2018-01-04T09:32:03.019Z,98501
2018-01-04T09:33:03.057Z,98506
2018-01-04T09:34:02.151Z,98501
2018-01-04T09:35:02.210Z,98499
2018-01-04T09:36:02.053Z,98498
2018-01-04T09:37:02.243Z,98489
2018-01-04T09:38:02.176Z,98482
2018-01-04T09:39:03.302Z,98480
2018-01-04T09:40:02.316Z,98485
2018-01-04T09:41:02.336Z,98492
2018-01-04T09:42:02.477Z,98491
2018-01-04T09:43:02.520Z,98489
2018-01-04T09:44:03.536Z,98488
2018-01-04T09:45:03.653Z,98490
2018-01-04T09:46:02.642Z,98478
2018-01-04T09:47:03.637Z,98473
2018-01-04T09:48:02.713Z,98468
2018-01-04T09:49:03.914Z,98460
2018-01-04T09:50:02.882Z,98462
2018-01-04T09:51:03.993Z,98471
2018-01-04T09:52:02.972Z,98473
2018-01-04T09:53:04.122Z,98474
2018-01-04T09:54:04.139Z,98478
2018-01-04T09:55:03.181Z,98469
2018-01-04T09:56:04.245Z,98471
2018-01-04T09:57:03.306Z,98473
2018-01-04T09:58:03.265Z,98474
2018-01-04T09:59:04.285Z,98471
2018-01-04T10:00:04.369Z,98474
2018-01-04T10:01:04.379Z,98466
2018-01-04T10:02:03.359Z,98472
2018-01-04T10:03:03.485Z,98466
2018-01-04T10:04:03.450Z,98472
2018-01-04T10:05:03.539Z,98466
2018-01-04T10:06:03.476Z,98466
2018-01-04T10:07:03.528Z,98466
2018-01-04T10:08:03.496Z,98464
2018-01-04T10:09:04.640Z,98460
2018-01-04T10:10:04.618Z,98467
2018-01-04T10:11:03.696Z,98456
2018-01-04T10:12:03.590Z,98450
2018-01-04T10:13:03.637Z,98453
2018-01-04T10:14:03.750Z,98447
2018-01-04T10:15:05.073Z,98440
2018-01-04T10:16:03.965Z,98450
2018-01-04T10:17:04.073Z,98441
2018-01-04T10:18:04.915Z,98444
2018-01-04T10:19:04.152Z,98448
2018-01-04T10:20:05.081Z,98446
2018-01-04T10:21:05.108Z,98443
2018-01-04T10:22:04.204Z,98438
2018-01-04T10:23:04.388Z,98435
2018-01-04T10:24:04.321Z,98425
2018-01-04T10:25:04.483Z,98422
2018-01-04T10:26:04.392Z,98420
2018-01-04T10:27:04.596Z,98426
2018-01-04T10:28:04.553Z,98427
2018-01-04T10:29:04.736Z,98418
2018-01-04T10:30:05.771Z,98413
2018-01-04T10:31:05.805Z,98414
2018-01-04T10:32:04.783Z,98421
2018-01-04T10:33:04.966Z,98427
2018-01-04T10:34:06.034Z,98418
2018-01-04T10:35:06.034Z,98414
2018-01-04T10:36:05.040Z,98414
2018-01-04T10:37:05.149Z,98406
2018-01-04T10:38:05.152Z,98404
2018-01-04T10:39:06.465Z,98399
2018-01-04T10:40:05.301Z,98401
2018-01-04T10:41:05.328Z,98398
2018-01-04T10:42:05.589Z,98396
2018-01-04T10:43:06.673Z,98384
2018-01-04T10:44:05.687Z,98384
2018-01-04T10:45:05.678Z,98386
2018-01-04T10:46:06.587Z,98388
2018-01-04T10:47:05.764Z,98371
2018-01-04T10:48:06.695Z,98381
2018-01-04T10:49:06.812Z,98381
2018-01-04T10:50:05.868Z,98373
2018-01-04T10:51:06.882Z,98378
2018-01-04T10:52:06.040Z,98374
2018-01-04T10:53:05.891Z,98373
2018-01-04T10:54:06.000Z,98374
2018-01-04T10:55:07.043Z,98377
2018-01-04T10:56:06.208Z,98313
2018-01-04T10:57:07.299Z,98368
2018-01-04T10:58:07.295Z,98368
2018-01-04T10:59:06.341Z,98367
2018-01-04T11:00:06.428Z,98366
2018-01-04T11:01:06.378Z,98355
2018-01-04T11:02:06.535Z,98356
2018-01-04T11:03:06.494Z,98351
2018-01-04T11:04:06.619Z,98350
2018-01-04T11:05:06.618Z,98338
2018-01-04T11:06:06.809Z,98339
2018-01-04T11:07:06.760Z,98339
2018-01-04T11:08:06.831Z,98344
2018-01-04T11:09:06.870Z,98331
2018-01-04T11:10:06.964Z,98337
2018-01-04T11:11:07.144Z,98327
2018-01-04T11:12:07.097Z,98322
2018-01-04T11:13:07.210Z,98326
2018-01-04T11:14:07.192Z,98329
2018-01-04T11:15:07.247Z,98330
2018-01-04T11:16:08.421Z,98322
2018-01-04T11:17:07.426Z,98326
2018-01-04T11:18:08.544Z,98323
2018-01-04T11:19:07.550Z,98317
2018-01-04T11:20:07.564Z,98319
2018-01-04T11:21:08.713Z,98305
2018-01-04T11:22:08.678Z,98317
2018-01-04T11:23:07.709Z,98313
2018-01-04T11:24:07.838Z,98307
2018-01-04T11:25:08.956Z,98304
2018-01-04T11:26:07.967Z,98299
2018-01-04T11:27:07.952Z,98304
2018-01-04T11:28:09.116Z,98296
2018-01-04T11:29:08.096Z,98287
2018-01-04T11:30:08.261Z,98282
2018-01-04T11:31:08.254Z,98283
2018-01-04T11:32:08.421Z,98277
2018-01-04T11:33:09.370Z,98274
2018-01-04T11:34:09.500Z,98286
2018-01-04T11:35:09.467Z,98289
2018-01-04T11:36:08.528Z,98286
2018-01-04T11:37:09.542Z,98289
2018-01-04T11:38:08.624Z,98284
2018-01-04T11:39:08.656Z,98285
2018-01-04T11:40:08.733Z,98282
2018-01-04T11:41:08.832Z,98282
2018-01-04T11:42:09.845Z,98274
2018-01-04T11:43:08.925Z,98284
2018-01-04T11:44:09.997Z,98285
2018-01-04T11:45:09.078Z,98285
2018-01-04T11:46:09.066Z,98283
2018-01-04T11:47:10.033Z,98286
2018-01-04T11:48:10.019Z,98290
2018-01-04T11:49:09.080Z,98290
2018-01-04T11:50:09.156Z,98287
2018-01-04T11:51:10.329Z,98282
2018-01-04T11:52:10.404Z,98277
2018-01-04T11:53:09.381Z,98272
2018-01-04T11:54:09.391Z,98264
2018-01-04T11:55:09.476Z,98256
2018-01-04T11:56:10.518Z,98252
2018-01-04T11:57:10.549Z,98246
2018-01-04T11:58:09.673Z,98248
2018-01-04T11:59:10.632Z,98245
2018-01-04T12:00:10.816Z,98242
2018-01-04T12:01:09.785Z,98237
2018-01-04T12:02:10.948Z,98236
2018-01-04T12:03:11.022Z,98226
2018-01-04T12:04:10.100Z,98237
2018-01-04T12:05:10.108Z,98209
2018-01-04T12:06:11.077Z,98219
2018-01-04T12:07:10.184Z,98217
2018-01-04T12:08:10.378Z,98208
2018-01-04T12:09:10.418Z,98202
2018-01-04T12:10:10.396Z,98205
2018-01-04T12:11:10.556Z,98196
2018-01-04T12:12:11.562Z,98196
2018-01-04T12:13:10.542Z,98187
2018-01-04T12:14:11.518Z,98194
2018-01-04T12:15:10.622Z,98194
2018-01-04T12:16:10.643Z,98183
2018-01-04T12:17:10.868Z,98186
2018-01-04T12:18:10.844Z,98173
2018-01-04T12:19:11.850Z,98182
2018-01-04T12:20:11.962Z,98169
2018-01-04T12:21:10.958Z,98168
2018-01-04T12:22:11.036Z,98170
2018-01-04T12:23:11.103Z,98170
2018-01-04T12:24:11.969Z,98173
2018-01-04T12:25:12.097Z,98171
2018-01-04T12:26:11.083Z,98155
2018-01-04T12:27:11.110Z,98158
2018-01-04T12:28:11.189Z,98151
2018-01-04T12:29:12.280Z,98144
2018-01-04T12:30:12.373Z,98134
2018-01-04T12:31:11.340Z,98141
2018-01-04T12:32:11.348Z,98145
2018-01-04T12:33:11.443Z,98141
2018-01-04T12:34:12.492Z,98135
2018-01-04T12:35:12.616Z,98135
2018-01-04T12:36:11.674Z,98133
2018-01-04T12:37:11.595Z,98130
2018-01-04T12:38:11.768Z,98129
2018-01-04T12:39:11.893Z,98130
2018-01-04T12:40:12.934Z,98129
2018-01-04T12:41:13.017Z,98128
2018-01-04T12:42:13.016Z,98125
2018-01-04T12:43:13.042Z,98122
2018-01-04T12:44:12.103Z,98119
2018-01-04T12:45:13.122Z,98114
2018-01-04T12:46:13.180Z,98120
2018-01-04T12:47:12.151Z,98119
2018-01-04T12:48:12.247Z,98117
2018-01-04T12:49:13.271Z,98114
2018-01-04T12:50:12.521Z,98104
2018-01-04T12:51:13.379Z,98116
2018-01-04T12:52:12.438Z,98101
2018-01-04T12:53:12.522Z,98097